sensor_id;sensor_type;location;lat;lon;timestamp;pressure;altitude;pressure_sealevel;temperature;humidity
62779;BME280;48821;48.796;2.396;2023-02-16T00:01:33;102513.97;;;6.63;63.10
62779;BME280;48821;48.796;2.396;2023-02-16T00:02:44;102509.63;;;6.65;63.48
62779;BME280;48821;48.796;2.396;2023-02-16T00:03:56;102512.25;;;6.65;63.66
62779;BME280;48821;48.796;2.396;2023-02-16T00:05:32;102510.50;;;6.66;63.73
62779;BME280;48821;48.796;2.396;2023-02-16T00:06:43;102512.25;;;6.65;63.17
62779;BME280;48821;48.796;2.396;2023-02-16T00:07:56;102512.25;;;6.65;63.56
62779;BME280;48821;48.796;2.396;2023-02-16T00:09:07;102514.84;;;6.65;63.29
62779;BME280;48821;48.796;2.396;2023-02-16T00:10:19;102512.25;;;6.65;63.50
62779;BME280;48821;48.796;2.396;2023-02-16T00:11:33;102511.38;;;6.66;63.46
62779;BME280;48821;48.796;2.396;2023-02-16T00:13:26;102513.13;;;6.66;63.55
62779;BME280;48821;48.796;2.396;2023-02-16T00:14:57;102511.34;;;6.64;63.34
62779;BME280;48821;48.796;2.396;2023-02-16T00:16:17;102511.34;;;6.64;63.54
62779;BME280;48821;48.796;2.396;2023-02-16T00:17:29;102514.84;;;6.63;63.65
62779;BME280;48821;48.796;2.396;2023-02-16T00:18:41;102514.00;;;6.66;63.40
62779;BME280;48821;48.796;2.396;2023-02-16T00:19:53;102508.75;;;6.64;63.75
62779;BME280;48821;48.796;2.396;2023-02-16T00:21:05;102510.50;;;6.64;63.74
62779;BME280;48821;48.796;2.396;2023-02-16T00:22:17;102509.63;;;6.65;63.87
62779;BME280;48821;48.796;2.396;2023-02-16T00:23:29;102511.34;;;6.64;63.29
62779;BME280;48821;48.796;2.396;2023-02-16T00:24:41;102503.50;;;6.64;63.63
62779;BME280;48821;48.796;2.396;2023-02-16T00:25:52;102503.50;;;6.63;63.75
62779;BME280;48821;48.796;2.396;2023-02-16T00:27:11;102507.88;;;6.64;63.39
62779;BME280;48821;48.796;2.396;2023-02-16T00:28:22;102513.13;;;6.64;63.63
62779;BME280;48821;48.796;2.396;2023-02-16T00:29:36;102506.13;;;6.63;64.08
62779;BME280;48821;48.796;2.396;2023-02-16T00:30:47;102502.63;;;6.62;63.73
62779;BME280;48821;48.796;2.396;2023-02-16T00:32:03;102506.97;;;6.62;63.46
62779;BME280;48821;48.796;2.396;2023-02-16T00:33:19;102506.13;;;6.63;63.70
62779;BME280;48821;48.796;2.396;2023-02-16T00:34:39;102498.28;;;6.61;63.83
62779;BME280;48821;48.796;2.396;2023-02-16T00:35:50;102500.88;;;6.61;63.70
62779;BME280;48821;48.796;2.396;2023-02-16T00:37:06;102505.22;;;6.61;63.38
62779;BME280;48821;48.796;2.396;2023-02-16T00:38:17;102504.34;;;6.60;63.55
62779;BME280;48821;48.796;2.396;2023-02-16T00:39:29;102508.69;;;6.60;63.64
62779;BME280;48821;48.796;2.396;2023-02-16T00:40:41;102500.84;;;6.60;63.47
62779;BME280;48821;48.796;2.396;2023-02-16T00:41:59;102501.72;;;6.59;63.94
62779;BME280;48821;48.796;2.396;2023-02-16T00:43:24;102503.44;;;6.58;63.47
62779;BME280;48821;48.796;2.396;2023-02-16T00:44:46;102505.19;;;6.58;63.91
62779;BME280;48821;48.796;2.396;2023-02-16T00:45:57;102503.44;;;6.58;63.72
62779;BME280;48821;48.796;2.396;2023-02-16T00:47:34;102503.44;;;6.57;63.32
62779;BME280;48821;48.796;2.396;2023-02-16T00:48:46;102501.69;;;6.56;63.58
62779;BME280;48821;48.796;2.396;2023-02-16T00:49:58;102497.28;;;6.55;63.62
62779;BME280;48821;48.796;2.396;2023-02-16T00:51:10;102496.44;;;6.54;63.41
62779;BME280;48821;48.796;2.396;2023-02-16T00:53:41;102495.53;;;6.52;63.57
62779;BME280;48821;48.796;2.396;2023-02-16T00:54:53;102496.41;;;6.52;63.81
62779;BME280;48821;48.796;2.396;2023-02-16T00:56:06;102493.78;;;6.51;63.70
62779;BME280;48821;48.796;2.396;2023-02-16T00:57:19;102494.66;;;6.51;63.51
62779;BME280;48821;48.796;2.396;2023-02-16T00:58:30;102496.38;;;6.49;63.72
62779;BME280;48821;48.796;2.396;2023-02-16T00:59:41;102498.13;;;6.49;63.87
62779;BME280;48821;48.796;2.396;2023-02-16T01:01:07;102494.63;;;6.48;63.51
62779;BME280;48821;48.796;2.396;2023-02-16T01:02:18;102496.34;;;6.46;63.34
62779;BME280;48821;48.796;2.396;2023-02-16T01:03:30;102491.13;;;6.46;63.61
62779;BME280;48821;48.796;2.396;2023-02-16T01:04:42;102486.75;;;6.45;63.81
62779;BME280;48821;48.796;2.396;2023-02-16T01:05:54;102490.22;;;6.44;63.70
62779;BME280;48821;48.796;2.396;2023-02-16T01:07:24;102488.47;;;6.43;63.47
62779;BME280;48821;48.796;2.396;2023-02-16T01:08:54;102489.31;;;6.42;63.36
62779;BME280;48821;48.796;2.396;2023-02-16T01:10:25;102487.56;;;6.41;63.63
62779;BME280;48821;48.796;2.396;2023-02-16T01:11:56;102490.16;;;6.39;63.75
62779;BME280;48821;48.796;2.396;2023-02-16T01:13:08;102491.00;;;6.38;63.51
62779;BME280;48821;48.796;2.396;2023-02-16T01:14:19;102487.50;;;6.38;63.64
62779;BME280;48821;48.796;2.396;2023-02-16T01:15:31;102484.91;;;6.38;63.80
62779;BME280;48821;48.796;2.396;2023-02-16T01:16:43;102487.50;;;6.38;63.55
62779;BME280;48821;48.796;2.396;2023-02-16T01:17:54;102480.56;;;6.37;63.92
62779;BME280;48821;48.796;2.396;2023-02-16T01:19:06;102484.03;;;6.37;64.09
62779;BME280;48821;48.796;2.396;2023-02-16T01:20:22;102491.00;;;6.37;63.92
62779;BME280;48821;48.796;2.396;2023-02-16T01:21:34;102494.47;;;6.36;63.84
62779;BME280;48821;48.796;2.396;2023-02-16T01:22:48;102484.00;;;6.36;63.70
62779;BME280;48821;48.796;2.396;2023-02-16T01:23:59;102490.13;;;6.36;63.86
62779;BME280;48821;48.796;2.396;2023-02-16T01:25:10;102484.84;;;6.35;64.02
62779;BME280;48821;48.796;2.396;2023-02-16T01:26:22;102488.34;;;6.35;63.84
62779;BME280;48821;48.796;2.396;2023-02-16T01:27:38;102486.63;;;6.34;63.84
62779;BME280;48821;48.796;2.396;2023-02-16T01:28:50;102485.72;;;6.34;64.14
62779;BME280;48821;48.796;2.396;2023-02-16T01:30:06;102483.13;;;6.34;63.97
62779;BME280;48821;48.796;2.396;2023-02-16T01:31:18;102490.06;;;6.35;64.08
62779;BME280;48821;48.796;2.396;2023-02-16T01:32:31;102490.94;;;6.34;64.19
62779;BME280;48821;48.796;2.396;2023-02-16T01:33:43;102483.13;;;6.34;64.20
62779;BME280;48821;48.796;2.396;2023-02-16T01:34:54;102487.47;;;6.35;63.94
62779;BME280;48821;48.796;2.396;2023-02-16T01:36:19;102482.25;;;6.35;64.00
62779;BME280;48821;48.796;2.396;2023-02-16T01:37:33;102486.63;;;6.34;63.91
62779;BME280;48821;48.796;2.396;2023-02-16T01:38:44;102482.25;;;6.35;64.21
62779;BME280;48821;48.796;2.396;2023-02-16T01:39:56;102477.91;;;6.35;64.04
62779;BME280;48821;48.796;2.396;2023-02-16T01:44:24;102474.41;;;6.35;64.01
62779;BME280;48821;48.796;2.396;2023-02-16T01:45:39;102478.78;;;6.36;64.19
62779;BME280;48821;48.796;2.396;2023-02-16T01:47:04;102475.28;;;6.35;64.43
62779;BME280;48821;48.796;2.396;2023-02-16T01:48:23;102476.19;;;6.36;64.55
62779;BME280;48821;48.796;2.396;2023-02-16T01:49:36;102477.06;;;6.38;64.22
62779;BME280;48821;48.796;2.396;2023-02-16T01:51:12;102477.06;;;6.38;63.87
62779;BME280;48821;48.796;2.396;2023-02-16T01:52:33;102475.34;;;6.37;64.31
62779;BME280;48821;48.796;2.396;2023-02-16T01:53:52;102465.75;;;6.37;64.13
62779;BME280;48821;48.796;2.396;2023-02-16T01:55:24;102467.50;;;6.38;64.59
62779;BME280;48821;48.796;2.396;2023-02-16T01:56:46;102465.75;;;6.37;64.33
62779;BME280;48821;48.796;2.396;2023-02-16T01:58:04;102460.50;;;6.37;64.44
62779;BME280;48821;48.796;2.396;2023-02-16T02:02:11;102452.72;;;6.39;64.65
62779;BME280;48821;48.796;2.396;2023-02-16T02:03:30;102457.94;;;6.39;64.57
62779;BME280;48821;48.796;2.396;2023-02-16T02:06:42;102451.84;;;6.40;64.64
62779;BME280;48821;48.796;2.396;2023-02-16T02:09:10;102454.44;;;6.40;64.29
62779;BME280;48821;48.796;2.396;2023-02-16T02:12:13;102457.09;;;6.41;64.57
62779;BME280;48821;48.796;2.396;2023-02-16T02:14:41;102461.44;;;6.41;64.50
62779;BME280;48821;48.796;2.396;2023-02-16T02:15:55;102458.84;;;6.43;64.76
62779;BME280;48821;48.796;2.396;2023-02-16T02:17:19;102449.28;;;6.43;64.26
62779;BME280;48821;48.796;2.396;2023-02-16T02:18:31;102449.28;;;6.43;64.59
62779;BME280;48821;48.796;2.396;2023-02-16T02:19:53;102448.38;;;6.43;64.30
62779;BME280;48821;48.796;2.396;2023-02-16T02:23:14;102451.03;;;6.44;64.07
62779;BME280;48821;48.796;2.396;2023-02-16T02:36:53;102432.75;;;6.44;64.63
62779;BME280;48821;48.796;2.396;2023-02-16T02:38:04;102426.66;;;6.45;64.33
62779;BME280;48821;48.796;2.396;2023-02-16T02:41:11;102424.03;;;6.45;64.31
62779;BME280;48821;48.796;2.396;2023-02-16T02:42:47;102424.03;;;6.45;64.37
62779;BME280;48821;48.796;2.396;2023-02-16T02:44:05;102418.81;;;6.45;64.64
62779;BME280;48821;48.796;2.396;2023-02-16T02:45:27;102420.53;;;6.45;64.22
62779;BME280;48821;48.796;2.396;2023-02-16T02:46:40;102430.16;;;6.44;64.68
62779;BME280;48821;48.796;2.396;2023-02-16T02:47:52;102429.25;;;6.45;64.78
62779;BME280;48821;48.796;2.396;2023-02-16T02:49:04;102421.44;;;6.45;64.66
62779;BME280;48821;48.796;2.396;2023-02-16T02:50:46;102424.03;;;6.45;64.63
62779;BME280;48821;48.796;2.396;2023-02-16T02:52:13;102430.16;;;6.46;64.44
62779;BME280;48821;48.796;2.396;2023-02-16T02:53:25;102426.66;;;6.45;64.67
62779;BME280;48821;48.796;2.396;2023-02-16T02:54:38;102419.69;;;6.44;64.08
62779;BME280;48821;48.796;2.396;2023-02-16T02:56:11;102429.25;;;6.45;64.28
62779;BME280;48821;48.796;2.396;2023-02-16T02:57:47;102418.81;;;6.44;64.40
62779;BME280;48821;48.796;2.396;2023-02-16T02:59:19;102426.59;;;6.42;64.22
62779;BME280;48821;48.796;2.396;2023-02-16T03:00:49;102429.22;;;6.42;64.37
62779;BME280;48821;48.796;2.396;2023-02-16T03:02:02;102432.72;;;6.43;64.34
62779;BME280;48821;48.796;2.396;2023-02-16T03:04:34;102420.53;;;6.41;64.24
62779;BME280;48821;48.796;2.396;2023-02-16T03:06:01;102423.16;;;6.41;64.33
62779;BME280;48821;48.796;2.396;2023-02-16T03:07:14;102417.03;;;6.41;64.12
62779;BME280;48821;48.796;2.396;2023-02-16T03:08:27;102418.75;;;6.39;64.16
62779;BME280;48821;48.796;2.396;2023-02-16T03:09:40;102421.38;;;6.39;64.34
62779;BME280;48821;48.796;2.396;2023-02-16T03:10:56;102410.94;;;6.39;64.71
62779;BME280;48821;48.796;2.396;2023-02-16T03:12:28;102416.16;;;6.39;64.51
62779;BME280;48821;48.796;2.396;2023-02-16T03:14:02;102413.53;;;6.39;64.56
62779;BME280;48821;48.796;2.396;2023-02-16T03:15:15;102403.94;;;6.38;64.39
62779;BME280;48821;48.796;2.396;2023-02-16T03:16:34;102416.16;;;6.39;64.42
62779;BME280;48821;48.796;2.396;2023-02-16T03:17:47;102413.53;;;6.39;64.33
62779;BME280;48821;48.796;2.396;2023-02-16T03:19:18;102414.41;;;6.39;64.75
62779;BME280;48821;48.796;2.396;2023-02-16T03:20:48;102416.16;;;6.39;64.60
62779;BME280;48821;48.796;2.396;2023-02-16T03:22:18;102417.03;;;6.39;64.83
62779;BME280;48821;48.796;2.396;2023-02-16T03:23:49;102419.66;;;6.41;64.92
62779;BME280;48821;48.796;2.396;2023-02-16T03:25:25;102407.44;;;6.40;65.06
62779;BME280;48821;48.796;2.396;2023-02-16T03:26:58;102407.44;;;6.40;64.75
62779;BME280;48821;48.796;2.396;2023-02-16T03:28:30;102412.69;;;6.41;64.66
62779;BME280;48821;48.796;2.396;2023-02-16T03:30:04;102409.19;;;6.41;64.76
62779;BME280;48821;48.796;2.396;2023-02-16T03:31:22;102401.38;;;6.41;64.40
62779;BME280;48821;48.796;2.396;2023-02-16T03:32:36;102406.59;;;6.43;64.68
62779;BME280;48821;48.796;2.396;2023-02-16T03:33:49;102406.59;;;6.43;64.81
62779;BME280;48821;48.796;2.396;2023-02-16T03:35:04;102403.97;;;6.43;64.81
62779;BME280;48821;48.796;2.396;2023-02-16T03:36:16;102410.09;;;6.45;64.77
62779;BME280;48821;48.796;2.396;2023-02-16T03:37:28;102407.50;;;6.45;64.77
62779;BME280;48821;48.796;2.396;2023-02-16T03:38:40;102410.97;;;6.45;65.04
62779;BME280;48821;48.796;2.396;2023-02-16T03:39:52;102407.53;;;6.46;64.77
62779;BME280;48821;48.796;2.396;2023-02-16T03:41:24;102403.19;;;6.47;65.15
62779;BME280;48821;48.796;2.396;2023-02-16T03:42:36;102401.41;;;6.47;64.71
62779;BME280;48821;48.796;2.396;2023-02-16T03:43:47;102404.03;;;6.47;64.70
62779;BME280;48821;48.796;2.396;2023-02-16T03:44:59;102404.06;;;6.49;65.16
62779;BME280;48821;48.796;2.396;2023-02-16T03:46:11;102405.81;;;6.48;64.98
62779;BME280;48821;48.796;2.396;2023-02-16T03:47:23;102415.41;;;6.51;64.84
62779;BME280;48821;48.796;2.396;2023-02-16T03:48:35;102401.47;;;6.50;64.76
62779;BME280;48821;48.796;2.396;2023-02-16T03:49:47;102408.41;;;6.50;64.97
62779;BME280;48821;48.796;2.396;2023-02-16T03:50:59;102411.91;;;6.52;65.01
62779;BME280;48821;48.796;2.396;2023-02-16T03:52:11;102413.69;;;6.53;64.97
62779;BME280;48821;48.796;2.396;2023-02-16T03:53:23;102410.19;;;6.52;64.68
62779;BME280;48821;48.796;2.396;2023-02-16T03:54:35;102409.31;;;6.52;64.54
62779;BME280;48821;48.796;2.396;2023-02-16T03:55:47;102397.13;;;6.52;64.78
62779;BME280;48821;48.796;2.396;2023-02-16T03:56:59;102406.72;;;6.53;64.54
62779;BME280;48821;48.796;2.396;2023-02-16T03:58:13;102400.63;;;6.55;64.83
62779;BME280;48821;48.796;2.396;2023-02-16T03:59:25;102405.84;;;6.55;64.69
62779;BME280;48821;48.796;2.396;2023-02-16T04:00:38;102414.56;;;6.55;64.39
62779;BME280;48821;48.796;2.396;2023-02-16T04:01:50;102403.22;;;6.53;64.65
62779;BME280;48821;48.796;2.396;2023-02-16T04:03:02;102405.84;;;6.55;65.05
62779;BME280;48821;48.796;2.396;2023-02-16T04:04:14;102404.13;;;6.53;64.88
62779;BME280;48821;48.796;2.396;2023-02-16T04:05:26;102409.34;;;6.53;64.34
62779;BME280;48821;48.796;2.396;2023-02-16T04:06:38;102408.47;;;6.53;64.68
62779;BME280;48821;48.796;2.396;2023-02-16T04:07:50;102408.47;;;6.53;64.72
62779;BME280;48821;48.796;2.396;2023-02-16T04:09:02;102407.56;;;6.52;64.61
62779;BME280;48821;48.796;2.396;2023-02-16T04:10:14;102415.41;;;6.52;64.42
62779;BME280;48821;48.796;2.396;2023-02-16T04:11:26;102411.06;;;6.51;64.54
62779;BME280;48821;48.796;2.396;2023-02-16T04:12:56;102410.19;;;6.51;64.31
62779;BME280;48821;48.796;2.396;2023-02-16T04:14:08;102416.25;;;6.50;64.43
62779;BME280;48821;48.796;2.396;2023-02-16T04:15:23;102412.78;;;6.49;64.45
62779;BME280;48821;48.796;2.396;2023-02-16T04:16:34;102405.81;;;6.48;64.53
62779;BME280;48821;48.796;2.396;2023-02-16T04:17:47;102412.75;;;6.48;64.60
62779;BME280;48821;48.796;2.396;2023-02-16T04:18:59;102408.41;;;6.47;64.08
62779;BME280;48821;48.796;2.396;2023-02-16T04:20:13;102404.91;;;6.46;64.51
62779;BME280;48821;48.796;2.396;2023-02-16T04:21:25;102409.25;;;6.46;64.40
62779;BME280;48821;48.796;2.396;2023-02-16T04:22:37;102403.16;;;6.45;64.12
62779;BME280;48821;48.796;2.396;2023-02-16T04:23:49;102400.53;;;6.45;64.29
62779;BME280;48821;48.796;2.396;2023-02-16T04:25:01;102408.38;;;6.44;64.54
62779;BME280;48821;48.796;2.396;2023-02-16T04:26:13;102407.47;;;6.43;64.50
62779;BME280;48821;48.796;2.396;2023-02-16T04:27:25;102404.88;;;6.43;64.66
62779;BME280;48821;48.796;2.396;2023-02-16T04:28:37;102407.47;;;6.41;64.30
62779;BME280;48821;48.796;2.396;2023-02-16T04:29:49;102405.72;;;6.42;64.64
62779;BME280;48821;48.796;2.396;2023-02-16T04:31:01;102399.63;;;6.41;64.47
62779;BME280;48821;48.796;2.396;2023-02-16T04:32:13;102404.81;;;6.40;64.72
62779;BME280;48821;48.796;2.396;2023-02-16T04:33:25;102406.59;;;6.39;64.58
62779;BME280;48821;48.796;2.396;2023-02-16T04:34:37;102406.53;;;6.38;64.24
62779;BME280;48821;48.796;2.396;2023-02-16T04:35:49;102406.53;;;6.38;64.28
62779;BME280;48821;48.796;2.396;2023-02-16T04:37:01;102409.16;;;6.38;64.75
62779;BME280;48821;48.796;2.396;2023-02-16T04:38:13;102404.81;;;6.37;64.28
62779;BME280;48821;48.796;2.396;2023-02-16T04:39:25;102396.09;;;6.36;64.57
62779;BME280;48821;48.796;2.396;2023-02-16T04:40:37;102402.16;;;6.35;64.40
62779;BME280;48821;48.796;2.396;2023-02-16T04:41:49;102400.44;;;6.36;64.67
62779;BME280;48821;48.796;2.396;2023-02-16T04:43:01;102403.88;;;6.35;64.38
62779;BME280;48821;48.796;2.396;2023-02-16T04:44:12;102402.16;;;6.34;64.82
62779;BME280;48821;48.796;2.396;2023-02-16T04:45:24;102408.25;;;6.34;64.95
62779;BME280;48821;48.796;2.396;2023-02-16T04:46:36;102409.13;;;6.35;64.63
62779;BME280;48821;48.796;2.396;2023-02-16T04:47:48;102408.25;;;6.34;64.42
62779;BME280;48821;48.796;2.396;2023-02-16T04:49:00;102410.00;;;6.34;64.92
62779;BME280;48821;48.796;2.396;2023-02-16T04:50:12;102406.50;;;6.35;64.47
62779;BME280;48821;48.796;2.396;2023-02-16T04:51:24;102406.50;;;6.35;64.74
62779;BME280;48821;48.796;2.396;2023-02-16T04:52:36;102402.16;;;6.34;64.83
62779;BME280;48821;48.796;2.396;2023-02-16T04:53:48;102406.50;;;6.33;64.90
62779;BME280;48821;48.796;2.396;2023-02-16T04:55:00;102399.53;;;6.34;64.53
62779;BME280;48821;48.796;2.396;2023-02-16T04:56:12;102408.25;;;6.34;64.79
62779;BME280;48821;48.796;2.396;2023-02-16T04:57:24;102402.16;;;6.34;64.66
62779;BME280;48821;48.796;2.396;2023-02-16T04:58:36;102410.84;;;6.33;64.51
62779;BME280;48821;48.796;2.396;2023-02-16T04:59:48;102410.84;;;6.33;64.53
62779;BME280;48821;48.796;2.396;2023-02-16T05:01:00;102416.94;;;6.33;65.17
62779;BME280;48821;48.796;2.396;2023-02-16T05:02:12;102411.72;;;6.33;64.95
62779;BME280;48821;48.796;2.396;2023-02-16T05:03:24;102403.00;;;6.33;64.35
62779;BME280;48821;48.796;2.396;2023-02-16T05:04:36;102415.22;;;6.34;65.02
62779;BME280;48821;48.796;2.396;2023-02-16T05:05:48;102411.72;;;6.33;64.71
62779;BME280;48821;48.796;2.396;2023-02-16T05:07:00;102408.22;;;6.33;65.04
62779;BME280;48821;48.796;2.396;2023-02-16T05:08:12;102409.09;;;6.32;64.86
62779;BME280;48821;48.796;2.396;2023-02-16T05:09:24;102404.75;;;6.32;64.55
62779;BME280;48821;48.796;2.396;2023-02-16T05:10:36;102406.50;;;6.32;65.09
62779;BME280;48821;48.796;2.396;2023-02-16T05:11:48;102409.97;;;6.32;65.16
62779;BME280;48821;48.796;2.396;2023-02-16T05:13:17;102409.09;;;6.32;64.87
62779;BME280;48821;48.796;2.396;2023-02-16T05:14:47;102409.09;;;6.32;65.17
62779;BME280;48821;48.796;2.396;2023-02-16T05:15:59;102416.94;;;6.33;64.97
62779;BME280;48821;48.796;2.396;2023-02-16T05:17:19;102409.09;;;6.32;64.65
62779;BME280;48821;48.796;2.396;2023-02-16T05:18:31;102412.59;;;6.32;65.05
62779;BME280;48821;48.796;2.396;2023-02-16T05:19:45;102418.66;;;6.33;65.13
62779;BME280;48821;48.796;2.396;2023-02-16T05:20:56;102416.94;;;6.33;65.48
62779;BME280;48821;48.796;2.396;2023-02-16T05:22:27;102418.72;;;6.34;65.37
62779;BME280;48821;48.796;2.396;2023-02-16T05:23:44;102416.09;;;6.34;65.40
62779;BME280;48821;48.796;2.396;2023-02-16T05:24:56;102419.56;;;6.35;65.15
62779;BME280;48821;48.796;2.396;2023-02-16T05:26:08;102419.59;;;6.36;65.53
62779;BME280;48821;48.796;2.396;2023-02-16T05:27:23;102418.72;;;6.37;65.36
62779;BME280;48821;48.796;2.396;2023-02-16T05:28:34;102410.03;;;6.38;65.51
62779;BME280;48821;48.796;2.396;2023-02-16T05:29:46;102408.31;;;6.39;65.23
62779;BME280;48821;48.796;2.396;2023-02-16T05:30:58;102411.81;;;6.41;65.45
62779;BME280;48821;48.796;2.396;2023-02-16T05:32:11;102410.09;;;6.41;65.34
62779;BME280;48821;48.796;2.396;2023-02-16T05:33:22;102411.81;;;6.43;65.36
62779;BME280;48821;48.796;2.396;2023-02-16T05:34:34;102407.47;;;6.43;65.48
62779;BME280;48821;48.796;2.396;2023-02-16T05:35:46;102403.13;;;6.44;65.24
62779;BME280;48821;48.796;2.396;2023-02-16T05:36:58;102411.84;;;6.44;64.98
62779;BME280;48821;48.796;2.396;2023-02-16T05:38:10;102406.63;;;6.46;65.27
62779;BME280;48821;48.796;2.396;2023-02-16T05:39:22;102409.25;;;6.46;65.11
62779;BME280;48821;48.796;2.396;2023-02-16T05:40:34;102406.63;;;6.46;65.52
62779;BME280;48821;48.796;2.396;2023-02-16T05:41:46;102414.47;;;6.47;65.14
62779;BME280;48821;48.796;2.396;2023-02-16T05:42:58;102417.09;;;6.47;65.43
62779;BME280;48821;48.796;2.396;2023-02-16T05:44:10;102419.72;;;6.47;64.98
62779;BME280;48821;48.796;2.396;2023-02-16T05:45:22;102418.88;;;6.48;65.40
62779;BME280;48821;48.796;2.396;2023-02-16T05:46:36;102415.38;;;6.48;65.18
62779;BME280;48821;48.796;2.396;2023-02-16T05:47:48;102428.47;;;6.49;65.35
62779;BME280;48821;48.796;2.396;2023-02-16T05:49:00;102418.00;;;6.49;65.02
62779;BME280;48821;48.796;2.396;2023-02-16T05:50:12;102418.00;;;6.49;65.02
62779;BME280;48821;48.796;2.396;2023-02-16T05:51:24;102423.25;;;6.49;65.38
62779;BME280;48821;48.796;2.396;2023-02-16T05:52:36;102417.13;;;6.50;65.07
62779;BME280;48821;48.796;2.396;2023-02-16T05:53:48;102418.03;;;6.51;65.23
62779;BME280;48821;48.796;2.396;2023-02-16T05:55:00;102417.13;;;6.52;65.35
62779;BME280;48821;48.796;2.396;2023-02-16T05:56:12;102421.50;;;6.51;64.91
62779;BME280;48821;48.796;2.396;2023-02-16T05:57:24;102427.59;;;6.52;65.25
62779;BME280;48821;48.796;2.396;2023-02-16T05:58:36;102423.25;;;6.52;65.16
62779;BME280;48821;48.796;2.396;2023-02-16T05:59:48;102424.13;;;6.53;65.44
62779;BME280;48821;48.796;2.396;2023-02-16T06:01:00;102427.63;;;6.55;65.21
62779;BME280;48821;48.796;2.396;2023-02-16T06:02:11;102413.69;;;6.53;65.04
62779;BME280;48821;48.796;2.396;2023-02-16T06:03:24;102424.13;;;6.55;65.35
62779;BME280;48821;48.796;2.396;2023-02-16T06:04:35;102420.69;;;6.56;65.05
62779;BME280;48821;48.796;2.396;2023-02-16T06:05:52;102425.91;;;6.56;65.27
62779;BME280;48821;48.796;2.396;2023-02-16T06:07:04;102425.91;;;6.56;64.92
62779;BME280;48821;48.796;2.396;2023-02-16T06:08:16;102414.56;;;6.55;65.25
62779;BME280;48821;48.796;2.396;2023-02-16T06:09:27;102418.94;;;6.56;65.27
62779;BME280;48821;48.796;2.396;2023-02-16T06:10:38;102417.22;;;6.57;64.97
62779;BME280;48821;48.796;2.396;2023-02-16T06:11:51;102422.44;;;6.57;65.24
62779;BME280;48821;48.796;2.396;2023-02-16T06:13:02;102425.91;;;6.57;65.39
62779;BME280;48821;48.796;2.396;2023-02-16T06:14:17;102426.78;;;6.58;64.96
62779;BME280;48821;48.796;2.396;2023-02-16T06:15:29;102431.13;;;6.57;65.24
62779;BME280;48821;48.796;2.396;2023-02-16T06:16:43;102426.78;;;6.58;65.23
62779;BME280;48821;48.796;2.396;2023-02-16T06:17:55;102425.06;;;6.57;65.04
62779;BME280;48821;48.796;2.396;2023-02-16T06:19:07;102432.03;;;6.58;65.48
62779;BME280;48821;48.796;2.396;2023-02-16T06:20:19;102425.06;;;6.57;65.09
62779;BME280;48821;48.796;2.396;2023-02-16T06:21:32;102426.78;;;6.58;65.17
62779;BME280;48821;48.796;2.396;2023-02-16T06:22:43;102417.22;;;6.58;65.17
62779;BME280;48821;48.796;2.396;2023-02-16T06:23:55;102425.06;;;6.60;65.20
62779;BME280;48821;48.796;2.396;2023-02-16T06:25:07;102428.56;;;6.62;65.46
62779;BME280;48821;48.796;2.396;2023-02-16T06:26:19;102428.56;;;6.62;65.67
62779;BME280;48821;48.796;2.396;2023-02-16T06:27:31;102428.56;;;6.62;65.29
62779;BME280;48821;48.796;2.396;2023-02-16T06:28:43;102426.88;;;6.64;65.44
62779;BME280;48821;48.796;2.396;2023-02-16T06:29:55;102427.72;;;6.64;65.53
62779;BME280;48821;48.796;2.396;2023-02-16T06:31:07;102430.38;;;6.66;65.70
62779;BME280;48821;48.796;2.396;2023-02-16T06:32:19;102433.00;;;6.66;65.66
62779;BME280;48821;48.796;2.396;2023-02-16T06:33:31;102433.88;;;6.68;65.81
62779;BME280;48821;48.796;2.396;2023-02-16T06:34:43;102435.63;;;6.69;65.71
62779;BME280;48821;48.796;2.396;2023-02-16T06:35:55;102438.28;;;6.71;65.48
62779;BME280;48821;48.796;2.396;2023-02-16T06:37:07;102441.78;;;6.73;65.35
62779;BME280;48821;48.796;2.396;2023-02-16T06:38:18;102445.28;;;6.73;65.41
62779;BME280;48821;48.796;2.396;2023-02-16T06:39:30;102450.50;;;6.75;65.72
62779;BME280;48821;48.796;2.396;2023-02-16T06:40:42;102443.53;;;6.75;65.96
62779;BME280;48821;48.796;2.396;2023-02-16T06:41:54;102447.88;;;6.77;65.61
62779;BME280;48821;48.796;2.396;2023-02-16T06:43:06;102452.28;;;6.79;65.50
62779;BME280;48821;48.796;2.396;2023-02-16T06:44:18;102449.69;;;6.81;65.67
62779;BME280;48821;48.796;2.396;2023-02-16T06:45:30;102442.72;;;6.80;65.55
62779;BME280;48821;48.796;2.396;2023-02-16T06:46:44;102451.44;;;6.82;65.52
62779;BME280;48821;48.796;2.396;2023-02-16T06:47:55;102454.09;;;6.83;65.58
62779;BME280;48821;48.796;2.396;2023-02-16T06:49:10;102446.25;;;6.85;65.77
62779;BME280;48821;48.796;2.396;2023-02-16T06:50:22;102447.13;;;6.85;65.67
62779;BME280;48821;48.796;2.396;2023-02-16T06:51:34;102448.88;;;6.86;65.50
62779;BME280;48821;48.796;2.396;2023-02-16T06:52:46;102443.66;;;6.88;65.48
62779;BME280;48821;48.796;2.396;2023-02-16T06:53:58;102456.75;;;6.88;65.71
62779;BME280;48821;48.796;2.396;2023-02-16T06:55:10;102445.41;;;6.89;65.38
62779;BME280;48821;48.796;2.396;2023-02-16T06:56:22;102453.28;;;6.92;65.82
62779;BME280;48821;48.796;2.396;2023-02-16T06:57:34;102454.19;;;6.93;65.50
62779;BME280;48821;48.796;2.396;2023-02-16T06:58:46;102452.44;;;6.93;65.92
62779;BME280;48821;48.796;2.396;2023-02-16T06:59:58;102461.19;;;6.95;65.51
62779;BME280;48821;48.796;2.396;2023-02-16T07:01:10;102460.28;;;6.96;65.73
62779;BME280;48821;48.796;2.396;2023-02-16T07:02:22;102460.28;;;6.96;65.24
62779;BME280;48821;48.796;2.396;2023-02-16T07:03:33;102465.56;;;6.98;65.69
62779;BME280;48821;48.796;2.396;2023-02-16T07:04:45;102458.59;;;6.98;65.46
62779;BME280;48821;48.796;2.396;2023-02-16T07:05:57;102468.16;;;6.98;65.89
62779;BME280;48821;48.796;2.396;2023-02-16T07:07:09;102464.72;;;7.01;66.01
62779;BME280;48821;48.796;2.396;2023-02-16T07:08:21;102472.56;;;7.01;65.49
62779;BME280;48821;48.796;2.396;2023-02-16T07:09:36;102473.44;;;7.03;65.48